Asbury, Illinois
Current Conditions -  °F | °C
As of 7:35 PM on Monday 22 Dec 2014 (Local Time) from KCUL Reporting Station
Overcast Overcast  
Wind Chill: 51°   Ceiling: 1600
Heat Index: 51°   Visibility: 10mi
Dew Point: 50°   Wind: 13mph
Humidity: 96%   Direction: 140°SE
Pressure: 29.62"   Gusts: NA
Location:  37.8866°N, 88.266°W
Report Text: KCUL 230135Z AUTO 14011KT 10SM OVC016 11/10 A2962 RMK AO2 T01060100
Loading
Personal Weather Stations






























Interactive Weather Map New forecast layout! Learn more

10-Day Weather Forecast

Advertisements
Track Severe Weather on mobile